createdAt,value
2022-10-07T00:02:57.840Z,27.63
2022-10-07T00:08:07.177Z,31.05
2022-10-07T00:13:12.210Z,25.80
2022-10-07T00:18:14.888Z,29.50
2022-10-07T00:23:17.326Z,23.88
2022-10-07T00:28:19.645Z,28.63
2022-10-07T00:33:22.053Z,22.02
2022-10-07T00:38:28.403Z,23.33
2022-10-07T00:43:32.549Z,23.33
2022-10-07T00:48:38.907Z,18.80
2022-10-07T00:53:41.891Z,18.83
2022-10-07T00:58:46.004Z,21.33
2022-10-07T01:03:48.722Z,16.55
2022-10-07T01:08:52.988Z,17.73
2022-10-07T01:14:24.109Z,16.17
2022-10-07T01:19:41.275Z,24.38
2022-10-07T01:25:12.630Z,19.58
2022-10-07T01:30:15.018Z,21.63
2022-10-07T01:35:19.428Z,23.95
2022-10-07T01:40:27.486Z,17.35
2022-10-07T01:45:39.282Z,19.77
2022-10-07T01:50:43.288Z,16.25
2022-10-07T01:56:12.950Z,21.48
2022-10-07T02:01:23.034Z,18.17
2022-10-07T02:06:35.985Z,14.77
2022-10-07T02:11:41.323Z,15.30
2022-10-07T02:16:47.938Z,13.95
2022-10-07T02:21:52.664Z,13.60
2022-10-07T02:32:14.912Z,14.98
2022-10-07T02:49:32.568Z,16.50
2022-10-07T02:55:01.843Z,17.50
2022-10-07T03:00:11.367Z,16.70
2022-10-07T03:05:26.039Z,16.13
2022-10-07T03:10:32.117Z,17.85
2022-10-07T03:15:41.853Z,18.92
2022-10-07T03:20:47.055Z,17.67
2022-10-07T03:25:53.618Z,20.67
2022-10-07T03:31:07.910Z,18.17
2022-10-07T03:36:12.672Z,21.20
2022-10-07T03:41:19.254Z,19.58
2022-10-07T03:46:25.000Z,20.45
2022-10-07T03:51:28.578Z,15.03
2022-10-07T03:56:31.199Z,16.08
2022-10-07T04:01:34.107Z,19.45
2022-10-07T04:06:37.982Z,18.00
2022-10-07T04:11:45.789Z,17.30
2022-10-07T04:16:48.186Z,21.05
2022-10-07T04:21:52.993Z,17.23
2022-10-07T04:26:55.759Z,17.88
2022-10-07T04:31:58.986Z,19.83
2022-10-07T04:37:01.785Z,19.10
2022-10-07T04:42:06.744Z,19.80
2022-10-07T04:47:10.480Z,19.00
2022-10-07T04:52:15.211Z,19.55
2022-10-07T04:57:19.203Z,23.13
2022-10-07T05:02:22.382Z,22.45
2022-10-07T05:07:26.049Z,16.00
2022-10-07T05:12:29.180Z,19.38
2022-10-07T05:17:33.308Z,23.38
2022-10-07T05:22:36.369Z,19.90
2022-10-07T05:27:39.238Z,20.33
2022-10-07T05:32:41.906Z,19.53
2022-10-07T05:37:48.757Z,19.35
2022-10-07T05:42:54.598Z,23.45
2022-10-07T05:47:58.495Z,24.02
2022-10-07T05:53:00.876Z,18.92
2022-10-07T05:58:03.438Z,20.90
2022-10-07T06:03:05.781Z,23.58
2022-10-07T06:13:15.009Z,24.23
2022-10-07T06:18:17.902Z,20.17
2022-10-07T06:23:20.345Z,17.92
2022-10-07T06:28:23.357Z,17.70
2022-10-07T06:33:26.157Z,17.35
2022-10-07T06:38:28.521Z,18.85
2022-10-07T06:43:32.915Z,17.75
2022-10-07T06:48:46.108Z,17.13
2022-10-07T06:53:53.674Z,15.25
2022-10-07T06:59:00.000Z,16.58
2022-10-07T07:04:10.716Z,16.90
2022-10-07T07:09:13.758Z,14.77
2022-10-07T07:14:19.280Z,14.48
2022-10-07T07:19:28.283Z,17.15
2022-10-07T07:24:35.050Z,18.60
2022-10-07T07:29:40.867Z,14.98
2022-10-07T07:39:56.677Z,12.35
2022-10-07T07:45:00.127Z,11.27
2022-10-07T07:50:05.168Z,17.58
2022-10-07T07:55:09.075Z,14.50
2022-10-07T08:00:15.041Z,13.05
2022-10-07T08:05:24.079Z,11.85
2022-10-07T08:10:31.555Z,10.77
2022-10-07T08:15:35.052Z,13.20
2022-10-07T08:20:37.820Z,10.88
2022-10-07T08:25:42.102Z,10.73
2022-10-07T08:36:56.992Z,13.23
2022-10-07T08:42:15.420Z,8.40
2022-10-07T08:47:34.791Z,9.20
2022-10-07T08:52:46.380Z,13.88
2022-10-07T08:58:46.209Z,9.40
2022-10-07T09:04:39.852Z,7.35
2022-10-07T09:10:36.516Z,9.50
2022-10-07T09:27:20.451Z,6.65
2022-10-07T09:32:22.964Z,5.85
2022-10-07T09:37:27.861Z,5.97
2022-10-07T09:42:42.887Z,7.22
2022-10-07T09:47:51.413Z,5.32
2022-10-07T09:52:57.025Z,7.00
2022-10-07T09:58:02.400Z,6.45
2022-10-07T10:03:06.316Z,4.47
2022-10-07T10:08:18.915Z,9.30
2022-10-07T10:18:40.144Z,11.60
2022-10-07T10:23:46.618Z,7.65
2022-10-07T10:29:25.532Z,12.57
2022-10-07T10:34:48.825Z,8.15
2022-10-07T10:40:09.938Z,7.10
2022-10-07T10:45:30.494Z,8.45
2022-10-07T10:50:57.959Z,4.72
2022-10-07T10:56:38.656Z,9.45
2022-10-07T11:02:04.526Z,7.25
2022-10-07T11:07:22.669Z,5.88
2022-10-07T11:12:28.914Z,5.40
2022-10-07T11:17:42.659Z,4.57
2022-10-07T11:22:51.735Z,3.83
2022-10-07T11:28:01.141Z,6.97
2022-10-07T11:33:36.085Z,6.03
2022-10-07T11:38:42.457Z,7.22
2022-10-07T11:43:57.939Z,8.73
2022-10-07T11:49:08.331Z,3.60
2022-10-07T11:54:14.786Z,10.02
2022-10-07T11:59:34.507Z,13.40
2022-10-07T12:04:48.146Z,9.98
2022-10-07T12:10:23.866Z,7.40
2022-10-07T12:15:31.053Z,8.80
2022-10-07T12:21:10.841Z,4.97
2022-10-07T12:27:11.177Z,4.78
2022-10-07T12:32:51.874Z,3.10
2022-10-07T12:38:10.878Z,4.32
2022-10-07T12:44:18.363Z,3.72
2022-10-07T12:49:39.671Z,6.25
2022-10-07T12:54:58.227Z,3.97
2022-10-07T13:00:17.477Z,8.35
2022-10-07T13:06:03.828Z,7.80
2022-10-07T13:11:55.168Z,6.32
2022-10-07T13:17:28.137Z,7.78
2022-10-07T13:22:35.685Z,6.07
2022-10-07T13:27:38.769Z,3.00
2022-10-07T13:32:47.028Z,8.65
2022-10-07T13:37:51.615Z,4.53
2022-10-07T13:42:54.920Z,3.65
2022-10-07T13:47:57.896Z,3.78
2022-10-07T13:53:01.365Z,5.00
2022-10-07T13:58:06.707Z,7.75
2022-10-07T14:03:17.011Z,5.30
2022-10-07T14:08:23.647Z,4.47
2022-10-07T14:13:36.769Z,23.23
2022-10-07T14:18:42.885Z,18.52
2022-10-07T14:23:47.916Z,7.57
2022-10-07T14:28:50.312Z,3.90
2022-10-07T14:34:35.550Z,3.47
2022-10-07T14:39:42.675Z,3.10
2022-10-07T14:44:45.388Z,2.60
2022-10-07T14:49:52.899Z,4.43
2022-10-07T14:54:57.580Z,8.40
2022-10-07T15:00:00.295Z,4.88
2022-10-07T15:05:03.014Z,9.32
2022-10-07T15:10:12.088Z,4.15
2022-10-07T15:15:38.292Z,5.50
2022-10-07T15:20:40.997Z,5.60
2022-10-07T15:25:43.309Z,3.28
2022-10-07T15:30:45.743Z,2.70
2022-10-07T15:35:48.123Z,3.83
2022-10-07T15:40:55.800Z,3.63
2022-10-07T15:45:59.715Z,2.17
2022-10-07T15:51:04.912Z,2.00
2022-10-07T15:56:09.544Z,2.25
2022-10-07T16:01:12.582Z,5.38
2022-10-07T16:06:23.079Z,3.33
2022-10-07T16:11:27.427Z,3.58
2022-10-07T16:16:32.995Z,5.60
2022-10-07T16:21:37.877Z,5.35
2022-10-07T16:26:41.947Z,6.72
2022-10-07T16:31:46.301Z,3.78
2022-10-07T16:36:50.061Z,3.30
2022-10-07T16:41:52.657Z,4.53
2022-10-07T16:46:59.277Z,3.83
2022-10-07T16:52:01.673Z,8.40
2022-10-07T16:57:04.282Z,10.38
2022-10-07T17:02:06.858Z,7.90
2022-10-07T17:07:09.397Z,11.20
2022-10-07T17:12:12.007Z,10.87
2022-10-07T17:17:14.345Z,10.93
2022-10-07T17:22:17.009Z,12.98
2022-10-07T17:27:19.511Z,14.30
2022-10-07T17:32:21.985Z,14.60
2022-10-07T17:37:25.034Z,16.88
2022-10-07T17:42:27.286Z,14.82
2022-10-07T17:47:29.891Z,12.05
2022-10-07T17:52:32.665Z,13.97
2022-10-07T17:57:37.868Z,13.43
2022-10-07T18:07:44.645Z,16.73
2022-10-07T18:13:05.840Z,28.02
2022-10-07T18:18:08.154Z,18.02
2022-10-07T18:23:10.333Z,17.77
2022-10-07T18:28:13.502Z,12.95
2022-10-07T18:33:16.349Z,24.85
2022-10-07T18:38:18.611Z,66.93
2022-10-07T18:43:20.908Z,95.97
2022-10-07T18:48:23.333Z,85.25
2022-10-07T18:59:44.111Z,116.10
2022-10-07T19:04:47.809Z,118.50
2022-10-07T19:10:12.973Z,123.97
2022-10-07T19:15:15.454Z,163.32
2022-10-07T19:20:18.519Z,176.85
2022-10-07T19:25:46.122Z,131.60
2022-10-07T19:38:42.815Z,125.10
2022-10-07T19:43:46.680Z,125.25
2022-10-07T19:48:49.644Z,148.10
2022-10-07T19:54:48.843Z,138.07
2022-10-07T20:00:11.827Z,160.50
2022-10-07T20:05:14.956Z,159.95
2022-10-07T20:10:19.917Z,177.50
2022-10-07T20:15:23.313Z,206.18
2022-10-07T20:20:27.564Z,190.48
2022-10-07T20:25:33.825Z,175.55
2022-10-07T20:30:37.662Z,129.98
2022-10-07T20:35:41.128Z,123.68
2022-10-07T20:41:20.739Z,130.30
2022-10-07T20:46:23.670Z,120.95
2022-10-07T20:51:50.269Z,108.97
2022-10-07T20:57:26.522Z,88.45
2022-10-07T21:03:32.876Z,135.13
2022-10-07T21:08:39.379Z,172.07
2022-10-07T21:13:41.844Z,155.63
2022-10-07T21:24:40.182Z,118.32
2022-10-07T21:30:36.749Z,93.93
2022-10-07T21:35:42.865Z,70.18
2022-10-07T21:40:45.183Z,47.00
2022-10-07T21:45:47.818Z,48.00
2022-10-07T21:50:56.793Z,41.90
2022-10-07T21:56:02.121Z,41.70
2022-10-07T22:01:05.873Z,40.78
2022-10-07T22:06:10.535Z,38.05
2022-10-07T22:11:19.908Z,35.22
2022-10-07T22:16:23.078Z,39.10
2022-10-07T22:21:30.080Z,33.78
2022-10-07T22:26:40.751Z,32.78
2022-10-07T22:31:43.459Z,29.05
2022-10-07T22:36:45.908Z,28.20
2022-10-07T22:41:48.770Z,30.05
2022-10-07T22:47:39.812Z,29.55
2022-10-07T22:58:42.034Z,27.80
2022-10-07T23:03:44.732Z,24.08
2022-10-07T23:08:48.268Z,23.20
2022-10-07T23:13:54.717Z,26.50
2022-10-07T23:19:13.642Z,19.13
2022-10-07T23:24:58.690Z,18.05
2022-10-07T23:30:00.883Z,23.75
2022-10-07T23:40:21.086Z,22.20
2022-10-07T23:45:32.609Z,23.55
2022-10-07T23:50:58.711Z,26.15
2022-10-07T23:56:03.089Z,27.58
